Time;durP1;ratioP1;P1;durP2;ratioP2;P2;SDS_P1;SDS_P2;PMS_P1;PMS_P2;Temp;Humidity;BMP_temperature;BMP_pressure;BME280_temperature;BME280_humidity;BME280_pressure;Samples;Min_cycle;Max_cycle;Signal;HPM_P1;HPM_P2
2022/11/12 15:11:43;;;;;;;8.60;4.80;;;;;;;9.53;82.60;100196.38;99171;1331;599435;-27
2022/11/12 15:14:28;;;;;;;11.20;4.60;;;;;;;9.95;81.78;100198.94;101170;1314;61736;-26
2022/11/12 15:17:44;;;;;;;10.20;5.50;;;;;;;10.22;80.13;100200.08;101326;1315;61568;-25
2022/11/12 15:20:29;;;;;;;9.30;6.00;;;;;;;9.98;81.10;100193.90;101234;1313;74869;-26
2022/11/12 15:23:18;;;;;;;10.60;6.30;;;;;;;9.74;81.52;100194.95;101159;1314;75938;-25
2022/11/12 15:26:04;;;;;;;8.50;4.60;;;;;;;9.53;82.93;100196.56;100451;1309;1317385;-26
2022/11/12 15:29:09;;;;;;;9.10;5.80;;;;;;;9.95;82.13;100201.53;101678;1298;63241;-24
2022/11/12 15:31:56;;;;;;;9.50;5.70;;;;;;;10.11;81.06;100198.30;101404;1308;62807;-25
2022/11/12 15:34:47;;;;;;;9.80;6.00;;;;;;;9.90;81.46;100193.64;101456;1309;73685;-25
2022/11/12 15:37:35;;;;;;;11.20;6.40;;;;;;;9.66;82.44;100196.11;101894;1298;75747;-24
2022/11/12 15:40:21;;;;;;;7.70;5.00;;;;;;;9.44;83.73;100194.11;101751;1305;75068;-25
2022/11/12 15:43:18;;;;;;;9.90;6.00;;;;;;;9.93;82.68;100191.05;101911;1303;61913;-25
2022/11/12 15:46:04;;;;;;;10.50;6.00;;;;;;;10.12;81.35;100191.15;101787;1307;61756;-25
2022/11/12 15:48:49;;;;;;;9.40;6.50;;;;;;;9.93;81.85;100188.09;101959;1308;74735;-26
2022/11/12 15:51:40;;;;;;;8.40;5.60;;;;;;;9.70;82.48;100182.04;101970;1302;76687;-28
2022/11/12 15:54:26;;;;;;;9.00;5.30;;;;;;;9.49;83.30;100178.21;101868;1302;73711;-23
2022/11/12 15:57:14;;;;;;;9.80;5.90;;;;;;;9.95;82.51;100183.46;101902;1305;62697;-23
2022/11/12 16:00:01;;;;;;;11.20;5.80;;;;;;;10.13;81.26;100185.86;101863;1306;63216;-24
2022/11/12 16:02:58;;;;;;;11.60;6.10;;;;;;;10.02;81.67;100184.30;101774;1298;75464;-23
2022/11/12 16:05:44;;;;;;;11.00;6.30;;;;;;;9.79;82.19;100180.48;101783;1302;76604;-23
2022/11/12 16:08:30;;;;;;;12.20;6.10;;;;;;;9.52;83.57;100179.95;101867;1305;74204;-24
2022/11/12 16:14:20;;;;;;;9.00;5.30;;;;;;;9.96;82.49;100177.14;101908;1301;61728;-23
2022/11/12 16:17:14;;;;;;;10.20;6.20;;;;;;;9.77;83.06;100178.85;101897;1303;74624;-23
2022/11/12 16:20:00;;;;;;;12.70;5.70;;;;;;;9.53;83.94;100186.83;101680;1306;75495;-23
2022/11/12 16:22:46;;;;;;;9.30;5.00;;;;;;;9.36;84.99;100188.48;101874;1305;75342;-23
2022/11/12 16:25:34;;;;;;;8.20;5.20;;;;;;;9.82;83.97;100197.77;101770;1307;61177;-23
2022/11/12 16:28:19;;;;;;;8.70;5.50;;;;;;;9.92;82.81;100190.27;101761;1308;62814;-23
2022/11/12 16:31:05;;;;;;;10.10;6.10;;;;;;;9.74;83.49;100192.54;101874;1302;75492;-23
2022/11/12 16:33:51;;;;;;;10.50;5.90;;;;;;;9.48;84.12;100183.45;101883;1305;76606;-23
2022/11/12 16:36:38;;;;;;;8.80;5.20;;;;;;;9.32;85.21;100182.80;101883;1306;75053;-23
2022/11/12 16:39:24;;;;;;;8.00;5.10;;;;;;;9.65;84.48;100189.05;101865;1292;62893;-23
2022/11/12 16:42:10;;;;;;;10.80;5.40;;;;;;;9.77;83.87;100193.20;101891;1301;61104;-23
2022/11/12 16:44:56;;;;;;;8.70;5.50;;;;;;;9.54;84.31;100188.29;101878;1295;75589;-23
2022/11/12 16:47:46;;;;;;;8.80;5.00;;;;;;;9.27;85.46;100197.67;101853;1305;73888;-23
2022/11/12 16:50:32;;;;;;;7.00;4.40;;;;;;;9.35;85.90;100194.65;101625;1304;74455;-23
2022/11/12 16:53:18;;;;;;;8.10;4.50;;;;;;;9.74;84.21;100200.36;101853;1301;62986;-24
2022/11/12 16:56:04;;;;;;;8.40;5.50;;;;;;;9.68;83.81;100200.87;101865;1305;62846;-24
2022/11/12 16:58:50;;;;;;;10.50;5.60;;;;;;;9.42;84.94;100200.98;101774;1308;74481;-24
2022/11/12 17:01:36;;;;;;;5.40;3.60;;;;;;;9.20;86.21;100195.31;101867;1305;75812;-24
2022/11/12 17:04:25;;;;;;;7.90;4.30;;;;;;;9.61;84.74;100193.62;101868;1303;75324;-24
2022/11/12 17:07:11;;;;;;;7.80;4.70;;;;;;;9.69;84.15;100190.58;101879;1305;62851;-24
2022/11/12 17:09:56;;;;;;;7.10;4.70;;;;;;;9.52;84.57;100185.84;101884;1302;61033;-24
2022/11/12 17:12:42;;;;;;;5.70;3.70;;;;;;;9.22;85.78;100186.02;101895;1303;75574;-24
2022/11/12 17:15:28;;;;;;;9.40;5.00;;;;;;;9.30;86.10;100191.29;101899;1305;76650;-24
2022/11/12 17:18:14;;;;;;;8.00;5.40;;;;;;;9.64;84.55;100191.92;101870;1294;75498;-24
2022/11/12 17:21:16;;;;;;;6.90;4.20;;;;;;;9.40;85.42;100191.42;101854;1304;62757;-24
2022/11/12 17:24:02;;;;;;;8.10;4.90;;;;;;;9.27;85.96;100182.42;101859;1302;61777;-24
2022/11/12 17:26:48;;;;;;;6.90;4.60;;;;;;;9.26;86.30;100189.07;101879;1302;73682;-24
2022/11/12 17:29:34;;;;;;;6.30;4.70;;;;;;;9.57;84.96;100198.41;101896;1303;75543;-24
2022/11/12 17:32:21;;;;;;;8.60;5.10;;;;;;;9.37;85.92;100197.96;101867;1304;75126;-24
2022/11/12 17:35:06;;;;;;;7.70;5.60;;;;;;;9.18;86.31;100196.60;101847;1308;62817;-25
2022/11/12 17:37:52;;;;;;;6.40;4.60;;;;;;;9.12;87.26;100199.41;101896;1298;61685;-27
2022/11/12 17:40:38;;;;;;;6.20;4.60;;;;;;;9.65;85.02;100201.04;101899;1311;74569;-24
2022/11/12 17:43:24;;;;;;;8.30;4.40;;;;;;;9.74;84.06;100203.30;101868;1305;75039;-24
2022/11/12 17:46:11;;;;;;;6.90;4.80;;;;;;;9.54;84.55;100204.07;101856;1305;75256;-25
2022/11/12 17:49:00;;;;;;;11.00;4.80;;;;;;;9.31;85.88;100198.88;101777;1305;62757;-24
2022/11/12 17:51:45;;;;;;;6.70;4.30;;;;;;;9.37;86.13;100202.64;101847;1302;62768;-24
2022/11/12 17:54:31;;;;;;;7.50;4.50;;;;;;;9.67;85.22;100202.33;101862;1301;76774;-24
2022/11/12 17:57:17;;;;;;;6.10;4.20;;;;;;;9.75;84.57;100201.80;101872;1304;75811;-24
2022/11/12 18:00:03;;;;;;;8.00;5.60;;;;;;;9.41;85.32;100202.63;101848;1305;75172;-24
2022/11/12 18:02:50;;;;;;;5.70;4.20;;;;;;;9.26;86.29;100200.18;101859;1302;63437;-25
2022/11/12 18:05:36;;;;;;;8.00;5.20;;;;;;;9.38;85.91;100195.70;101886;1302;61667;-24
2022/11/12 18:08:22;;;;;;;11.00;5.90;;;;;;;9.56;84.69;100201.19;102229;1301;75644;-24
2022/11/12 18:11:08;;;;;;;6.40;4.90;;;;;;;9.28;85.70;100191.91;102211;1302;76604;-25
2022/11/12 18:13:54;;;;;;;8.90;5.30;;;;;;;9.12;86.74;100195.09;101913;1300;74178;-24
2022/11/12 18:16:40;;;;;;;7.20;5.40;;;;;;;8.87;87.32;100194.08;102026;1301;63287;-24
2022/11/12 18:19:25;;;;;;;8.10;5.50;;;;;;;9.14;86.11;100191.84;102136;1305;61948;-24
2022/11/12 18:22:12;;;;;;;7.40;4.80;;;;;;;8.98;86.70;100198.81;102128;1302;74515;-24
2022/11/12 18:24:58;;;;;;;7.10;5.00;;;;;;;9.04;86.49;100212.65;102024;1302;74905;-24
2022/11/12 18:27:44;;;;;;;7.00;4.30;;;;;;;8.92;87.25;100206.20;102167;1302;73987;-24
2022/11/12 18:30:30;;;;;;;6.70;5.30;;;;;;;9.04;86.22;100195.35;102203;1302;61864;-24
2022/11/12 18:33:16;;;;;;;6.40;4.90;;;;;;;9.13;85.69;100212.02;102154;1299;62734;-24
2022/11/12 18:36:06;;;;;;;9.10;5.30;;;;;;;8.94;86.67;100214.27;102206;1299;74638;-24
2022/11/12 18:38:53;;;;;;;4.50;3.40;;;;;;;8.84;87.02;100215.33;102208;1301;77212;-24
2022/11/12 18:41:39;;;;;;;5.00;3.70;;;;;;;8.85;87.50;100223.93;102207;1302;75355;-24
2022/11/12 18:44:24;;;;;;;9.30;4.00;;;;;;;9.03;86.60;100224.85;102191;1300;61826;-24
2022/11/12 18:47:11;;;;;;;7.00;4.00;;;;;;;8.84;87.55;100230.55;102183;1302;61557;-24
2022/11/12 18:49:56;;;;;;;5.20;3.50;;;;;;;8.71;88.20;100230.44;102187;1295;74210;-24
2022/11/12 18:52:43;;;;;;;5.00;3.40;;;;;;;8.86;88.23;100233.92;102219;1300;76725;-24
2022/11/12 18:55:28;;;;;;;5.90;4.00;;;;;;;9.10;86.66;100225.14;102187;1298;75094;-24
2022/11/12 18:58:14;;;;;;;4.20;3.20;;;;;;;9.10;86.68;100232.96;102202;1301;62869;-24
2022/11/12 19:01:10;;;;;;;9.50;4.60;;;;;;;8.94;87.36;100238.51;102196;1302;62755;-24
2022/11/12 19:03:57;;;;;;;4.70;3.40;;;;;;;8.75;89.29;100245.27;101973;1294;75534;-25
2022/11/12 19:06:42;;;;;;;6.10;3.80;;;;;;;9.10;87.58;100250.30;102148;1301;77381;-25
2022/11/12 19:09:28;;;;;;;4.90;3.30;;;;;;;9.27;86.87;100243.11;102166;1301;75210;-26
2022/11/12 19:12:14;;;;;;;6.00;4.30;;;;;;;9.00;87.45;100231.95;102175;1294;62950;-25
2022/11/12 19:14:59;;;;;;;6.00;3.10;;;;;;;8.83;89.04;100234.49;102212;1302;61682;-25
2022/11/12 19:17:45;;;;;;;5.90;3.80;;;;;;;9.17;87.59;100230.82;102211;1301;75880;-23
2022/11/12 19:20:31;;;;;;;9.90;3.90;;;;;;;9.20;87.14;100225.65;102090;1301;77181;-23
2022/11/12 19:23:17;;;;;;;7.80;4.10;;;;;;;9.10;87.56;100224.13;102196;1296;75140;-23
2022/11/12 19:26:04;;;;;;;4.90;3.60;;;;;;;8.91;88.62;100219.63;102157;1301;62791;-23
2022/11/12 19:28:50;;;;;;;4.30;3.20;;;;;;;9.02;88.49;100225.05;101934;1305;62692;-23
2022/11/12 19:31:36;;;;;;;6.30;4.00;;;;;;;9.34;86.70;100225.69;102224;1301;75632;-23
2022/11/12 19:34:22;;;;;;;8.30;4.40;;;;;;;9.29;86.43;100221.30;102209;1301;75500;-23
2022/11/12 19:37:07;;;;;;;7.20;4.20;;;;;;;9.08;87.47;100222.31;102035;1301;75159;-23
2022/11/12 19:40:13;;;;;;;5.40;3.30;;;;;;;9.03;88.03;100230.70;102127;1302;64959;-26
2022/11/12 19:42:59;;;;;;;5.30;3.10;;;;;;;9.39;86.43;100221.44;102154;1294;62680;-27
2022/11/12 19:45:45;;;;;;;5.90;3.50;;;;;;;9.41;86.31;100220.98;102134;1285;74271;-27
2022/11/12 19:48:30;;;;;;;5.60;4.20;;;;;;;9.18;87.00;100221.59;102209;1301;75742;-25
2022/11/12 19:51:16;;;;;;;8.10;4.60;;;;;;;8.97;88.06;100220.85;102151;1301;75153;-25
2022/11/12 19:54:06;;;;;;;4.70;3.00;;;;;;;8.88;89.61;100222.40;102208;1299;63581;-27
2022/11/12 19:56:52;;;;;;;5.90;4.10;;;;;;;9.26;87.58;100221.31;102141;1302;62760;-24
2022/11/12 19:59:39;;;;;;;6.40;4.40;;;;;;;9.28;87.40;100219.80;102211;1287;75180;-24
2022/11/12 20:02:25;;;;;;;6.40;4.50;;;;;;;9.24;87.28;100218.33;102222;1301;75793;-24
2022/11/12 20:05:11;;;;;;;6.50;4.00;;;;;;;9.02;88.48;100215.04;102131;1301;75193;-24
2022/11/12 20:07:56;;;;;;;9.30;3.50;;;;;;;9.46;86.77;100217.95;102118;1299;61874;-24
2022/11/12 20:10:42;;;;;;;6.30;4.10;;;;;;;9.54;85.70;100215.52;102069;1299;61899;-24
2022/11/12 20:13:28;;;;;;;7.20;4.20;;;;;;;9.39;86.34;100225.39;102037;1302;76324;-23
2022/11/12 20:16:15;;;;;;;9.10;5.00;;;;;;;9.08;87.64;100225.43;102110;1302;76764;-24
2022/11/12 20:19:09;;;;;;;5.30;3.50;;;;;;;8.90;89.59;100220.19;101955;1303;75257;-23
2022/11/12 20:21:54;;;;;;;7.80;4.20;;;;;;;9.42;87.22;100214.16;102213;1297;61656;-24
2022/11/12 20:24:40;;;;;;;5.70;4.00;;;;;;;9.48;86.14;100217.80;102204;1298;61704;-24
2022/11/12 20:27:26;;;;;;;7.00;4.00;;;;;;;9.29;86.86;100222.31;102219;1294;76271;-24
2022/11/12 20:30:12;;;;;;;5.40;3.90;;;;;;;8.97;88.18;100222.78;102203;1299;76685;-23
2022/11/12 20:32:58;;;;;;;6.80;3.40;;;;;;;9.02;88.40;100220.21;102208;1290;73623;-24
2022/11/12 20:35:44;;;;;;;6.60;4.40;;;;;;;9.21;86.61;100219.69;102192;1302;61860;-23
2022/11/12 20:38:30;;;;;;;6.50;3.90;;;;;;;9.24;86.28;100218.66;102342;1302;61901;-24
2022/11/12 20:41:17;;;;;;;5.10;3.70;;;;;;;8.99;87.07;100216.05;102174;1294;75232;-24
2022/11/12 20:44:03;;;;;;;5.40;2.80;;;;;;;8.85;87.73;100222.55;101967;1297;76635;-23
2022/11/12 20:46:49;;;;;;;4.70;3.60;;;;;;;9.13;86.79;100224.81;102227;1302;74041;-24
2022/11/12 20:49:35;;;;;;;6.30;4.10;;;;;;;9.25;86.05;100216.70;102180;1301;61743;-23
2022/11/12 20:52:20;;;;;;;5.60;4.00;;;;;;;8.97;87.37;100217.57;102204;1302;61853;-23
2022/11/12 20:55:07;;;;;;;5.40;3.30;;;;;;;8.73;88.96;100214.88;102209;1295;76343;-23
2022/11/12 20:57:52;;;;;;;4.10;2.90;;;;;;;8.88;88.27;100212.33;102076;1294;76121;-24
2022/11/12 21:00:38;;;;;;;5.80;3.40;;;;;;;9.13;86.86;100213.19;102233;1302;75127;-23
2022/11/12 21:03:25;;;;;;;5.20;3.30;;;;;;;8.90;87.61;100215.14;102132;1302;62918;-24
2022/11/12 21:06:13;;;;;;;4.20;2.90;;;;;;;8.78;87.68;100213.75;102211;1294;61884;-25
2022/11/12 21:08:59;;;;;;;5.50;3.50;;;;;;;8.70;87.82;100208.83;102004;1301;76661;-24
2022/11/12 21:11:45;;;;;;;5.20;3.20;;;;;;;9.03;86.27;100209.97;102066;1302;77282;-24
2022/11/12 21:14:31;;;;;;;5.70;3.10;;;;;;;8.97;85.90;100208.19;102062;1301;73311;-24
2022/11/12 21:17:18;;;;;;;5.40;3.20;;;;;;;8.83;86.33;100217.13;102205;1294;62640;-24
2022/11/12 21:20:05;;;;;;;4.30;2.50;;;;;;;8.74;87.28;100217.96;102158;1301;62868;-24
2022/11/12 21:22:51;;;;;;;5.40;3.00;;;;;;;9.04;85.94;100212.48;102181;1301;75276;-24
2022/11/12 21:25:37;;;;;;;4.70;2.90;;;;;;;9.22;84.89;100209.42;102197;1301;76895;-24
2022/11/12 21:28:23;;;;;;;7.00;3.60;;;;;;;8.94;86.37;100213.05;102058;1302;74153;-24
2022/11/12 21:31:11;;;;;;;7.10;3.50;;;;;;;8.91;87.12;100209.91;102198;1300;61485;-24
2022/11/12 21:34:02;;;;;;;5.50;3.30;;;;;;;8.85;87.85;100211.12;102123;1287;62851;-24
2022/11/12 21:36:48;;;;;;;5.90;3.30;;;;;;;9.15;86.12;100207.40;102115;1302;76485;-24
2022/11/12 21:39:33;;;;;;;6.20;3.30;;;;;;;9.00;86.43;100211.15;102200;1301;76733;-24
2022/11/12 21:42:19;;;;;;;6.00;3.50;;;;;;;8.82;86.97;100204.86;102139;1302;75384;-24
2022/11/12 21:45:06;;;;;;;4.10;2.50;;;;;;;8.60;87.44;100211.31;102165;1302;62746;-24
2022/11/12 21:47:52;;;;;;;6.30;2.40;;;;;;;8.92;86.38;100205.86;102142;1293;61686;-24
2022/11/12 21:50:37;;;;;;;6.70;3.30;;;;;;;9.04;85.46;100198.83;102180;1295;76457;-23
2022/11/12 21:53:23;;;;;;;5.90;3.30;;;;;;;8.72;86.59;100198.35;102207;1301;76681;-24
2022/11/12 21:56:11;;;;;;;6.00;2.90;;;;;;;8.58;87.59;100207.57;102139;1294;75364;-24
2022/11/12 21:58:59;;;;;;;3.10;2.60;;;;;;;8.73;85.78;100201.43;101939;1305;61173;-24
2022/11/12 22:01:45;;;;;;;4.40;2.60;;;;;;;8.80;85.24;100204.66;102102;1294;62210;-24
2022/11/12 22:04:31;;;;;;;5.40;3.10;;;;;;;8.60;86.11;100206.45;102195;1294;76273;-24
2022/11/12 22:07:16;;;;;;;5.00;2.90;;;;;;;8.28;87.74;100208.44;102283;1294;76697;-24
2022/11/12 22:10:03;;;;;;;3.60;2.30;;;;;;;8.32;88.13;100216.21;102028;1301;75143;-24
2022/11/12 22:12:49;;;;;;;5.30;2.80;;;;;;;8.53;87.02;100219.95;101932;1302;61667;-24
2022/11/12 22:15:55;;;;;;;6.10;3.80;;;;;;;8.46;86.86;100221.19;102164;1302;62760;-24
2022/11/12 22:18:42;;;;;;;3.70;1.90;;;;;;;8.30;87.73;100225.48;102154;1301;74733;-24
2022/11/12 22:21:29;;;;;;;4.20;3.00;;;;;;;8.37;87.93;100224.42;102173;1301;76791;-24
2022/11/12 22:24:21;;;;;;;5.10;2.60;;;;;;;8.66;87.15;100229.80;102041;1300;75208;-24
2022/11/12 22:27:07;;;;;;;7.00;3.90;;;;;;;8.61;86.72;100225.80;102019;1301;62813;-24
2022/11/12 22:29:52;;;;;;;3.70;2.90;;;;;;;8.34;87.66;100230.29;102069;1294;62981;-24
2022/11/12 22:32:38;;;;;;;3.90;2.60;;;;;;;8.39;88.19;100231.59;102152;1301;75249;-24
2022/11/12 22:35:24;;;;;;;3.80;2.70;;;;;;;8.70;86.81;100234.28;102059;1301;76767;-24
2022/11/12 22:38:10;;;;;;;5.50;2.70;;;;;;;8.71;85.94;100232.45;102094;1301;75127;-24
2022/11/12 22:41:03;;;;;;;4.60;3.00;;;;;;;8.31;87.29;100227.34;101971;1301;62004;-24
2022/11/12 22:43:50;;;;;;;6.40;3.10;;;;;;;8.25;87.89;100227.27;102055;1291;61796;-24
2022/11/12 22:46:36;;;;;;;4.50;3.50;;;;;;;8.71;86.51;100226.62;101940;1288;76532;-24
2022/11/12 22:49:22;;;;;;;4.20;3.00;;;;;;;8.85;85.09;100226.86;102193;1293;74894;-23
2022/11/12 22:52:08;;;;;;;6.00;3.30;;;;;;;8.63;85.39;100225.33;102147;1302;75288;-24
2022/11/12 22:54:53;;;;;;;4.90;2.60;;;;;;;8.38;86.75;100231.27;102206;1301;63041;-24
2022/11/12 22:57:39;;;;;;;7.80;3.00;;;;;;;8.49;86.80;100233.67;102092;1301;62754;-26
2022/11/12 23:00:29;;;;;;;5.20;3.40;;;;;;;8.67;85.91;100238.45;102196;1300;75375;-26
2022/11/12 23:03:15;;;;;;;5.20;3.50;;;;;;;8.61;85.91;100239.26;101982;1297;76735;-26
2022/11/12 23:06:03;;;;;;;9.10;3.60;;;;;;;8.34;86.71;100233.96;102065;1302;74278;-26
2022/11/12 23:08:49;;;;;;;5.80;3.00;;;;;;;8.26;87.58;100232.61;102093;1300;64782;-27
2022/11/12 23:11:36;;;;;;;7.10;3.50;;;;;;;8.72;85.95;100234.88;102153;1292;61100;-25
2022/11/12 23:14:22;;;;;;;6.60;4.30;;;;;;;8.75;85.18;100225.36;102065;1301;76431;-23
2022/11/12 23:17:07;;;;;;;6.30;4.20;;;;;;;8.55;85.96;100227.66;102123;1298;76772;-23
2022/11/12 23:19:53;;;;;;;4.70;3.10;;;;;;;8.30;86.83;100235.19;102014;1302;75123;-23
2022/11/12 23:22:39;;;;;;;4.60;3.00;;;;;;;8.38;86.72;100236.13;101916;1301;63418;-23
2022/11/12 23:25:25;;;;;;;6.50;4.20;;;;;;;8.67;85.15;100242.40;102143;1301;62844;-23
2022/11/12 23:28:10;;;;;;;8.30;4.00;;;;;;;8.62;85.01;100235.56;102087;1301;74279;-23
2022/11/12 23:30:57;;;;;;;6.70;4.30;;;;;;;8.44;85.62;100228.35;102122;1301;76829;-23
2022/11/12 23:33:46;;;;;;;6.40;4.00;;;;;;;8.10;87.09;100229.11;102107;1285;75250;-23
2022/11/12 23:36:32;;;;;;;6.30;3.80;;;;;;;8.52;86.52;100232.66;102049;1303;61812;-24
2022/11/12 23:39:18;;;;;;;7.10;4.10;;;;;;;8.78;84.72;100226.03;102125;1294;62815;-23
2022/11/12 23:42:03;;;;;;;13.60;4.80;;;;;;;8.63;84.98;100223.95;102154;1294;75006;-23
2022/11/12 23:44:49;;;;;;;7.60;4.80;;;;;;;8.38;86.43;100229.90;102150;1301;75774;-24
2022/11/12 23:47:35;;;;;;;7.60;4.90;;;;;;;8.13;87.50;100229.81;102080;1295;75149;-23
2022/11/12 23:50:20;;;;;;;7.70;3.60;;;;;;;8.56;85.60;100227.22;102028;1301;62770;-23
2022/11/12 23:53:06;;;;;;;7.10;5.00;;;;;;;8.49;84.97;100227.41;102118;1301;62734;-23
2022/11/12 23:55:52;;;;;;;7.50;5.00;;;;;;;8.27;85.86;100225.77;102113;1301;76401;-23
2022/11/12 23:58:38;;;;;;;7.80;4.70;;;;;;;7.91;88.38;100230.11;102136;1301;76658;-23
